createdAt,value
2022-12-25T00:00:25.776Z,9.40
2022-12-25T00:02:53.972Z,9.30
2022-12-25T00:05:22.128Z,9.30
2022-12-25T00:07:50.275Z,9.60
2022-12-25T00:10:18.562Z,9.80
2022-12-25T00:12:47.854Z,9.50
2022-12-25T00:15:15.829Z,9.40
2022-12-25T00:17:44.979Z,9.40
2022-12-25T00:20:15.615Z,9.40
2022-12-25T00:22:43.716Z,9.70
2022-12-25T00:25:12.081Z,9.80
2022-12-25T00:27:40.088Z,9.60
2022-12-25T00:30:12.881Z,9.50
2022-12-25T00:32:42.113Z,9.60
2022-12-25T00:35:10.858Z,9.80
2022-12-25T00:37:38.886Z,9.80
2022-12-25T00:40:08.882Z,9.70
2022-12-25T00:42:36.928Z,9.70
2022-12-25T00:45:06.765Z,9.60
2022-12-25T00:47:36.133Z,9.60
2022-12-25T00:50:04.751Z,9.90
2022-12-25T00:52:33.419Z,9.80
2022-12-25T00:55:01.429Z,9.70
2022-12-25T00:57:29.420Z,9.60
2022-12-25T00:59:57.408Z,9.80
2022-12-25T01:02:25.810Z,9.70
2022-12-25T01:04:57.773Z,9.60
2022-12-25T01:07:27.657Z,9.60
2022-12-25T01:10:13.425Z,9.60
2022-12-25T01:12:43.914Z,9.70
2022-12-25T01:15:13.323Z,9.80
2022-12-25T01:17:42.256Z,9.70
2022-12-25T01:20:14.077Z,9.60
2022-12-25T01:22:42.873Z,9.70
2022-12-25T01:25:12.306Z,9.70
2022-12-25T01:27:41.736Z,9.90
2022-12-25T01:30:11.728Z,9.90
2022-12-25T01:32:39.889Z,9.90
2022-12-25T01:35:08.831Z,9.70
2022-12-25T01:37:38.233Z,9.80
2022-12-25T01:40:08.230Z,9.70
2022-12-25T01:42:36.412Z,9.50
2022-12-25T01:45:34.129Z,9.80
2022-12-25T01:48:07.844Z,9.90
2022-12-25T01:50:39.068Z,10.00
2022-12-25T01:53:09.197Z,9.70
2022-12-25T01:55:38.569Z,9.80
2022-12-25T01:58:06.720Z,9.90
2022-12-25T02:00:34.774Z,9.90
2022-12-25T02:03:03.120Z,9.90
2022-12-25T02:05:33.367Z,9.90
2022-12-25T02:08:07.605Z,10.20
2022-12-25T02:10:38.745Z,10.00
2022-12-25T02:13:07.943Z,9.80
2022-12-25T02:15:45.080Z,9.70
2022-12-25T02:18:22.811Z,9.70
2022-12-25T02:21:19.886Z,9.80
2022-12-25T02:24:33.702Z,9.90
2022-12-25T02:27:14.850Z,9.70
2022-12-25T02:29:51.763Z,9.70
2022-12-25T02:32:27.167Z,9.80
2022-12-25T02:35:01.980Z,9.80
2022-12-25T02:37:37.510Z,9.80
2022-12-25T02:40:15.045Z,9.80
2022-12-25T02:43:08.906Z,9.70
2022-12-25T02:46:04.608Z,9.60
2022-12-25T02:48:54.322Z,9.70
2022-12-25T02:51:43.784Z,9.50
2022-12-25T02:54:29.737Z,9.40
2022-12-25T02:57:17.236Z,9.40
2022-12-25T03:00:05.922Z,9.50
2022-12-25T03:02:53.546Z,9.50
2022-12-25T03:05:42.955Z,9.70
2022-12-25T03:08:15.832Z,9.50
2022-12-25T03:11:10.779Z,9.50
2022-12-25T03:13:42.513Z,9.40
2022-12-25T03:16:28.637Z,9.40
2022-12-25T03:18:59.370Z,9.50
2022-12-25T03:21:45.379Z,9.50
2022-12-25T03:24:30.969Z,9.70
2022-12-25T03:26:59.111Z,9.50
2022-12-25T03:29:49.333Z,9.40
2022-12-25T03:32:29.025Z,9.60
2022-12-25T03:35:24.046Z,9.80
2022-12-25T03:38:32.190Z,9.90
2022-12-25T03:41:27.671Z,9.90
2022-12-25T03:44:20.376Z,9.90
2022-12-25T03:47:13.438Z,9.80
2022-12-25T03:50:05.568Z,9.80
2022-12-25T03:52:54.020Z,9.90
2022-12-25T03:55:40.982Z,9.90
2022-12-25T03:58:36.953Z,9.90
2022-12-25T04:01:22.485Z,9.90
2022-12-25T04:04:08.485Z,9.80
2022-12-25T04:06:53.856Z,9.80
2022-12-25T04:09:41.402Z,9.80
2022-12-25T04:12:26.992Z,9.80
2022-12-25T04:15:12.469Z,9.90
2022-12-25T04:17:58.496Z,9.90
2022-12-25T04:20:43.960Z,9.70
2022-12-25T04:23:29.832Z,9.60
2022-12-25T04:26:18.238Z,9.70
2022-12-25T04:29:05.295Z,9.70
2022-12-25T04:31:50.720Z,9.60
2022-12-25T04:34:35.389Z,9.80
2022-12-25T04:37:03.408Z,9.90
2022-12-25T04:39:31.388Z,9.70
2022-12-25T04:42:00.992Z,9.60
2022-12-25T04:44:29.086Z,9.70
2022-12-25T04:46:57.216Z,9.80
2022-12-25T04:49:25.303Z,9.70
2022-12-25T04:51:53.301Z,9.70
2022-12-25T04:54:21.285Z,9.70
2022-12-25T04:56:49.301Z,9.70
2022-12-25T04:59:18.630Z,9.70
2022-12-25T05:01:46.742Z,9.90
2022-12-25T05:04:14.846Z,9.90
2022-12-25T05:06:42.825Z,10.10
2022-12-25T05:09:11.411Z,10.20
2022-12-25T05:11:39.491Z,9.90
2022-12-25T05:14:07.489Z,9.80
2022-12-25T05:16:36.901Z,9.60
2022-12-25T05:19:04.946Z,9.50
2022-12-25T05:21:32.945Z,9.70
2022-12-25T05:24:00.975Z,9.60
2022-12-25T05:26:29.284Z,9.50
2022-12-25T05:28:57.323Z,9.60
2022-12-25T05:31:25.478Z,9.60
2022-12-25T05:33:54.836Z,9.50
2022-12-25T05:36:22.803Z,9.60
2022-12-25T05:38:51.656Z,9.70
2022-12-25T05:41:19.945Z,9.60
2022-12-25T05:43:47.956Z,9.70
2022-12-25T05:46:16.038Z,10.00
2022-12-25T05:48:44.051Z,9.90
2022-12-25T05:51:15.827Z,9.90
2022-12-25T05:53:44.853Z,10.10
2022-12-25T05:56:13.053Z,10.10
2022-12-25T05:58:41.752Z,9.80
2022-12-25T06:01:16.492Z,9.80
2022-12-25T06:03:44.679Z,9.70
2022-12-25T06:06:14.713Z,9.50
2022-12-25T06:08:43.344Z,9.50
2022-12-25T06:11:13.921Z,9.70
2022-12-25T06:13:42.421Z,9.80
2022-12-25T06:16:12.748Z,9.70
2022-12-25T06:18:44.904Z,9.60
2022-12-25T06:21:15.983Z,9.60
2022-12-25T06:23:44.668Z,9.80
2022-12-25T06:26:15.294Z,9.70
2022-12-25T06:28:43.461Z,9.70
2022-12-25T06:31:14.921Z,9.60
2022-12-25T06:33:43.553Z,9.70
2022-12-25T06:36:15.957Z,9.70
2022-12-25T06:38:44.739Z,9.60
2022-12-25T06:41:15.690Z,9.70
2022-12-25T06:43:43.970Z,9.70
2022-12-25T06:46:13.704Z,9.90
2022-12-25T06:48:47.838Z,9.80
2022-12-25T06:51:17.677Z,9.90
2022-12-25T06:53:46.039Z,9.80
2022-12-25T06:56:16.545Z,9.80
2022-12-25T06:58:45.457Z,9.70
2022-12-25T07:01:20.281Z,9.70
2022-12-25T07:03:50.793Z,9.80
2022-12-25T07:06:20.245Z,9.70
2022-12-25T07:08:48.528Z,9.80
2022-12-25T07:11:16.581Z,9.70
2022-12-25T07:13:44.600Z,9.60
2022-12-25T07:16:14.071Z,9.60
2022-12-25T07:18:42.603Z,9.70
2022-12-25T07:21:12.785Z,9.70
2022-12-25T07:23:42.896Z,9.80
2022-12-25T07:26:12.475Z,9.80
2022-12-25T07:28:41.010Z,9.70
2022-12-25T07:31:13.203Z,9.80
2022-12-25T07:33:42.034Z,10.00
2022-12-25T07:36:12.908Z,9.80
2022-12-25T07:38:43.501Z,9.90
2022-12-25T07:41:12.804Z,10.00
2022-12-25T07:43:41.060Z,9.90
2022-12-25T07:46:09.662Z,10.00
2022-12-25T07:48:38.009Z,9.70
2022-12-25T07:51:09.318Z,9.50
2022-12-25T07:53:38.268Z,9.30
2022-12-25T07:56:11.089Z,9.20
2022-12-25T07:58:39.633Z,9.20
2022-12-25T08:01:11.761Z,9.30
2022-12-25T08:03:40.576Z,9.50
2022-12-25T08:06:11.414Z,9.60
2022-12-25T08:08:40.154Z,9.80
2022-12-25T08:11:10.544Z,9.90
2022-12-25T08:13:38.981Z,9.90
2022-12-25T08:16:09.904Z,9.80
2022-12-25T08:18:38.936Z,9.90
2022-12-25T08:21:09.960Z,9.90
2022-12-25T08:23:40.241Z,9.90
2022-12-25T08:26:12.428Z,10.00
2022-12-25T08:28:41.089Z,10.10
2022-12-25T08:31:11.968Z,10.00
2022-12-25T08:33:40.280Z,10.10
2022-12-25T08:36:11.098Z,10.20
2022-12-25T08:38:40.754Z,10.00
2022-12-25T08:41:11.381Z,9.90
2022-12-25T08:43:39.866Z,10.00
2022-12-25T08:46:08.978Z,10.00
2022-12-25T08:48:37.423Z,9.90
2022-12-25T08:51:06.731Z,9.90
2022-12-25T08:53:34.823Z,10.00
2022-12-25T08:56:05.042Z,10.20
2022-12-25T08:58:34.672Z,10.00
2022-12-25T09:01:03.011Z,10.00
2022-12-25T09:03:32.390Z,10.00
2022-12-25T09:06:05.385Z,10.10
2022-12-25T09:08:34.121Z,10.00
2022-12-25T09:11:03.721Z,10.10
2022-12-25T09:13:32.192Z,10.30
2022-12-25T09:16:07.168Z,10.10
2022-12-25T09:18:35.631Z,10.20
2022-12-25T09:21:07.362Z,10.20
2022-12-25T09:23:35.882Z,10.10
2022-12-25T09:26:06.640Z,10.30
2022-12-25T09:28:35.065Z,10.20
2022-12-25T09:31:04.989Z,10.10
2022-12-25T09:33:33.380Z,10.10
2022-12-25T09:36:03.639Z,10.10
2022-12-25T09:38:32.251Z,10.10
2022-12-25T09:41:02.983Z,10.20
2022-12-25T09:43:35.171Z,10.20
2022-12-25T09:46:06.885Z,10.20
2022-12-25T09:48:36.845Z,10.20
2022-12-25T09:51:11.311Z,10.20
2022-12-25T09:53:44.649Z,10.20
2022-12-25T09:56:18.335Z,10.30
2022-12-25T09:58:46.957Z,10.30
2022-12-25T10:01:28.360Z,10.40
2022-12-25T10:04:26.517Z,10.40
2022-12-25T10:07:11.531Z,10.60
2022-12-25T10:09:54.888Z,10.70
2022-12-25T10:12:40.269Z,10.90
2022-12-25T10:15:30.859Z,10.80
2022-12-25T10:18:29.231Z,10.70
2022-12-25T10:21:00.407Z,10.80
2022-12-25T10:23:34.020Z,11.00
2022-12-25T10:26:03.378Z,10.90
2022-12-25T10:28:37.180Z,11.00
2022-12-25T10:31:22.211Z,11.10
2022-12-25T10:33:53.915Z,11.30
2022-12-25T10:36:25.010Z,11.30
2022-12-25T10:38:54.442Z,11.40
2022-12-25T10:42:03.194Z,11.60
2022-12-25T10:44:33.176Z,11.70
2022-12-25T10:47:03.259Z,11.70
2022-12-25T10:49:36.520Z,11.50
2022-12-25T10:52:17.799Z,11.40
2022-12-25T10:54:46.606Z,11.40
2022-12-25T10:57:20.354Z,11.40
2022-12-25T10:59:51.904Z,11.50
2022-12-25T11:02:26.778Z,12.00
2022-12-25T11:05:04.632Z,12.30
2022-12-25T11:07:35.053Z,12.30
2022-12-25T11:10:08.002Z,12.10
2022-12-25T11:12:38.896Z,12.00
2022-12-25T11:15:33.726Z,12.10
2022-12-25T11:18:02.168Z,12.10
2022-12-25T11:20:33.238Z,12.00
2022-12-25T11:23:01.741Z,12.10
2022-12-25T11:25:30.203Z,12.10
2022-12-25T11:28:02.541Z,12.30
2022-12-25T11:30:32.665Z,12.00
2022-12-25T11:33:06.062Z,11.90
2022-12-25T11:35:47.889Z,11.80
2022-12-25T11:38:16.143Z,11.80
2022-12-25T11:40:49.270Z,11.80
2022-12-25T11:43:26.049Z,12.10
2022-12-25T11:46:00.326Z,12.20
2022-12-25T11:48:36.357Z,12.30
2022-12-25T11:51:09.450Z,12.20
2022-12-25T11:53:45.288Z,12.30
2022-12-25T11:56:20.118Z,12.40
2022-12-25T11:58:51.400Z,12.30
2022-12-25T12:01:31.682Z,12.30
2022-12-25T12:04:02.148Z,12.20
2022-12-25T12:06:47.453Z,12.20
2022-12-25T12:09:31.570Z,12.30
2022-12-25T12:12:08.820Z,12.30
2022-12-25T12:14:50.526Z,12.60
2022-12-25T12:17:19.774Z,12.50
2022-12-25T12:19:48.146Z,12.60
2022-12-25T12:22:25.663Z,12.50
2022-12-25T12:25:02.150Z,12.60
2022-12-25T12:27:39.578Z,12.60
2022-12-25T12:30:23.553Z,12.50
2022-12-25T12:32:54.236Z,12.50
2022-12-25T12:35:26.960Z,12.40
2022-12-25T12:38:03.251Z,12.30
2022-12-25T12:40:35.482Z,12.20
2022-12-25T12:43:04.537Z,12.30
2022-12-25T12:45:36.661Z,12.50
2022-12-25T12:48:16.323Z,12.40
2022-12-25T12:50:44.801Z,12.50
2022-12-25T12:53:33.559Z,12.20
2022-12-25T12:56:14.050Z,12.40
2022-12-25T12:58:48.476Z,12.30
2022-12-25T13:01:40.317Z,12.30
2022-12-25T13:04:33.880Z,12.30
2022-12-25T13:07:13.650Z,12.10
2022-12-25T13:10:05.399Z,12.20
2022-12-25T13:12:33.964Z,12.40
2022-12-25T13:15:02.282Z,12.40
2022-12-25T13:17:30.714Z,12.30
2022-12-25T13:20:02.262Z,12.30
2022-12-25T13:22:34.376Z,12.10
2022-12-25T13:25:08.805Z,12.20
2022-12-25T13:27:37.242Z,12.10
2022-12-25T13:30:15.273Z,12.10
2022-12-25T13:32:46.969Z,11.90
2022-12-25T13:35:17.918Z,11.90
2022-12-25T13:37:46.640Z,11.90
2022-12-25T13:40:25.101Z,11.80
2022-12-25T13:42:58.582Z,12.00
2022-12-25T13:45:35.033Z,12.10
2022-12-25T13:48:16.189Z,12.10
2022-12-25T13:50:48.378Z,12.10
2022-12-25T13:53:18.876Z,12.10
2022-12-25T13:55:54.374Z,12.20
2022-12-25T13:58:27.755Z,12.40
2022-12-25T14:00:59.024Z,12.30
2022-12-25T14:03:34.967Z,12.10
2022-12-25T14:06:06.229Z,12.10
2022-12-25T14:08:36.984Z,12.10
2022-12-25T14:11:08.679Z,12.00
2022-12-25T14:13:41.214Z,12.10
2022-12-25T14:16:10.376Z,12.00
2022-12-25T14:18:38.727Z,11.90
2022-12-25T14:21:09.281Z,12.10
2022-12-25T14:23:46.848Z,12.20
2022-12-25T14:26:22.160Z,12.00
2022-12-25T14:28:52.086Z,11.80
2022-12-25T14:31:21.209Z,11.80
2022-12-25T14:33:51.497Z,11.80
2022-12-25T14:36:23.224Z,11.80
2022-12-25T14:38:58.756Z,11.70
2022-12-25T14:41:36.986Z,11.80
2022-12-25T14:44:26.120Z,11.70
2022-12-25T14:47:06.563Z,11.60
2022-12-25T14:49:34.784Z,11.50
2022-12-25T14:52:11.599Z,11.60
2022-12-25T14:54:39.921Z,11.60
2022-12-25T14:57:19.725Z,11.50
2022-12-25T14:59:47.938Z,11.50
2022-12-25T15:02:20.307Z,11.50
2022-12-25T15:04:48.539Z,11.40
2022-12-25T15:07:31.829Z,11.40
2022-12-25T15:10:36.457Z,11.50
2022-12-25T15:12:49.533Z,11.40
2022-12-25T15:15:17.698Z,11.40
2022-12-25T15:17:45.791Z,11.30
2022-12-25T15:20:15.052Z,11.30
2022-12-25T15:23:10.269Z,11.30
2022-12-25T15:25:32.245Z,11.30
2022-12-25T15:28:02.023Z,11.20
2022-12-25T15:30:30.412Z,11.20
2022-12-25T15:32:59.936Z,11.10
2022-12-25T15:35:30.887Z,10.80
2022-12-25T15:37:59.837Z,10.70
2022-12-25T15:40:28.961Z,10.70
2022-12-25T15:42:57.884Z,10.70
2022-12-25T15:45:30.408Z,10.50
2022-12-25T15:47:59.157Z,10.50
2022-12-25T15:50:27.653Z,10.40
2022-12-25T15:52:55.903Z,10.30
2022-12-25T15:55:24.669Z,10.10
2022-12-25T15:57:55.023Z,10.20
2022-12-25T16:00:26.344Z,10.10
2022-12-25T16:02:58.079Z,10.00
2022-12-25T16:05:28.006Z,9.90
2022-12-25T16:07:56.447Z,9.90
2022-12-25T16:10:25.180Z,9.80
2022-12-25T16:12:53.410Z,9.80
2022-12-25T16:15:21.730Z,10.10
2022-12-25T16:17:51.792Z,9.80
2022-12-25T16:20:21.422Z,9.80
2022-12-25T16:22:49.992Z,10.00
2022-12-25T16:25:20.328Z,9.90
2022-12-25T16:27:49.140Z,10.10
2022-12-25T16:30:19.567Z,10.20
2022-12-25T16:32:51.712Z,9.90
2022-12-25T16:35:21.263Z,9.80
2022-12-25T16:37:49.573Z,9.80
2022-12-25T16:40:17.989Z,9.90
2022-12-25T16:42:46.169Z,9.60
2022-12-25T16:45:15.149Z,9.60
2022-12-25T16:47:43.304Z,9.50
2022-12-25T16:50:12.440Z,9.40
2022-12-25T16:52:41.963Z,9.40
2022-12-25T16:55:11.208Z,9.20
2022-12-25T16:57:39.334Z,9.20
2022-12-25T17:00:09.463Z,9.20
2022-12-25T17:02:37.850Z,9.20
2022-12-25T17:05:06.838Z,9.50
2022-12-25T17:07:37.540Z,9.40
2022-12-25T17:10:09.663Z,9.50
2022-12-25T17:12:37.787Z,9.50
2022-12-25T17:15:08.160Z,9.50
2022-12-25T17:17:37.044Z,9.50
2022-12-25T17:20:07.608Z,9.70
2022-12-25T17:22:36.460Z,9.70
2022-12-25T17:25:07.045Z,9.50
2022-12-25T17:27:35.452Z,9.40
2022-12-25T17:30:04.487Z,9.40
2022-12-25T17:32:32.695Z,9.40
2022-12-25T17:35:03.070Z,9.40
2022-12-25T17:37:32.020Z,9.50
2022-12-25T17:40:00.432Z,9.40
2022-12-25T17:42:30.194Z,9.40
2022-12-25T17:44:58.647Z,9.50
2022-12-25T17:47:28.018Z,9.60
2022-12-25T17:49:56.795Z,9.60
2022-12-25T17:52:25.497Z,9.70
2022-12-25T17:54:53.774Z,9.60
2022-12-25T17:57:22.062Z,9.70
2022-12-25T17:59:51.637Z,9.80
2022-12-25T18:02:21.064Z,9.80
2022-12-25T18:04:53.624Z,9.70
2022-12-25T18:07:21.873Z,9.80
2022-12-25T18:09:50.299Z,9.80
2022-12-25T18:12:18.805Z,9.80
2022-12-25T18:14:46.892Z,10.00
2022-12-25T18:17:16.385Z,9.90
2022-12-25T18:19:45.932Z,9.90
2022-12-25T18:22:14.479Z,9.90
2022-12-25T18:24:42.841Z,9.90
2022-12-25T18:27:10.908Z,10.00
2022-12-25T18:29:38.952Z,10.10
2022-12-25T18:32:07.523Z,10.10
2022-12-25T18:34:37.150Z,10.00
2022-12-25T18:37:05.484Z,10.10
2022-12-25T18:39:34.459Z,10.20
2022-12-25T18:42:20.789Z,10.20
2022-12-25T18:44:48.849Z,10.10
2022-12-25T18:47:16.913Z,10.20
2022-12-25T18:49:46.591Z,10.20
2022-12-25T18:52:47.613Z,10.10
2022-12-25T18:55:02.730Z,10.30
2022-12-25T18:57:32.650Z,10.40
2022-12-25T19:00:00.975Z,10.20
2022-12-25T19:02:29.896Z,10.30
2022-12-25T19:04:59.574Z,10.40
2022-12-25T19:07:27.753Z,10.40
2022-12-25T19:09:55.911Z,10.20
2022-12-25T19:12:24.731Z,10.20
2022-12-25T19:14:53.199Z,10.30
2022-12-25T19:17:24.323Z,10.20
2022-12-25T19:19:55.809Z,10.20
2022-12-25T19:22:25.300Z,10.20
2022-12-25T19:24:53.499Z,10.10
2022-12-25T19:27:21.603Z,10.10
2022-12-25T19:29:49.778Z,10.20
2022-12-25T19:32:18.215Z,10.00
2022-12-25T19:34:46.277Z,10.00
2022-12-25T19:37:15.470Z,9.80
2022-12-25T19:39:46.779Z,9.80
2022-12-25T19:42:16.248Z,9.90
2022-12-25T19:44:45.477Z,9.80
2022-12-25T19:47:13.744Z,10.00
2022-12-25T19:49:43.974Z,10.00
2022-12-25T19:52:14.440Z,9.80
2022-12-25T19:54:44.602Z,9.80
2022-12-25T19:57:12.898Z,9.80
2022-12-25T19:59:41.458Z,9.90
2022-12-25T20:02:11.305Z,9.80
2022-12-25T20:04:39.725Z,9.70
2022-12-25T20:07:07.936Z,9.80
2022-12-25T20:09:36.248Z,10.00
2022-12-25T20:12:06.316Z,9.90
2022-12-25T20:14:37.083Z,9.80
2022-12-25T20:17:08.270Z,9.60
2022-12-25T20:19:39.014Z,9.50
2022-12-25T20:22:07.097Z,9.60
2022-12-25T20:24:35.329Z,9.80
2022-12-25T20:27:05.090Z,9.80
2022-12-25T20:29:33.353Z,9.80
2022-12-25T20:32:01.710Z,9.80
2022-12-25T20:34:32.254Z,9.80
2022-12-25T20:37:00.360Z,10.00
2022-12-25T20:39:28.427Z,9.70
2022-12-25T20:41:56.780Z,9.70
2022-12-25T20:44:26.255Z,9.60
2022-12-25T20:46:56.444Z,9.70
2022-12-25T20:49:24.472Z,9.40
2022-12-25T20:51:52.417Z,9.50
2022-12-25T20:54:20.398Z,9.50
2022-12-25T20:56:49.966Z,9.50
2022-12-25T20:59:18.255Z,9.50
2022-12-25T21:01:47.754Z,9.70
2022-12-25T21:04:16.757Z,9.30
2022-12-25T21:06:44.848Z,9.40
2022-12-25T21:09:12.938Z,9.50
2022-12-25T21:11:41.082Z,9.60
2022-12-25T21:14:09.608Z,9.50
2022-12-25T21:16:37.623Z,9.50
2022-12-25T21:19:07.055Z,9.40
2022-12-25T21:21:35.880Z,9.40
2022-12-25T21:24:04.088Z,9.50
2022-12-25T21:26:32.416Z,9.50
2022-12-25T21:29:05.145Z,9.50
2022-12-25T21:31:55.154Z,9.50
2022-12-25T21:34:23.789Z,9.40
2022-12-25T21:36:51.943Z,9.30
2022-12-25T21:39:20.048Z,9.30
2022-12-25T21:41:49.103Z,9.40
2022-12-25T21:44:17.112Z,9.30
2022-12-25T21:46:45.214Z,9.40
2022-12-25T21:49:33.242Z,9.20
2022-12-25T21:52:07.654Z,9.20
2022-12-25T21:54:36.600Z,9.40
2022-12-25T21:57:04.991Z,9.20
2022-12-25T21:59:33.137Z,9.00
2022-12-25T22:02:01.377Z,8.90
2022-12-25T22:04:29.562Z,9.00
2022-12-25T22:07:15.004Z,9.20
2022-12-25T22:09:46.752Z,9.30
2022-12-25T22:12:34.630Z,9.00
2022-12-25T22:15:06.277Z,9.00
2022-12-25T22:17:55.234Z,8.90
2022-12-25T22:20:26.312Z,8.90
2022-12-25T22:22:54.794Z,8.80
2022-12-25T22:25:25.317Z,8.80
2022-12-25T22:27:54.026Z,8.80
2022-12-25T22:30:25.604Z,8.70
2022-12-25T22:32:54.059Z,8.80
2022-12-25T22:35:22.815Z,8.80
2022-12-25T22:37:51.258Z,9.10
2022-12-25T22:40:25.768Z,9.00
2022-12-25T22:42:57.225Z,9.20
2022-12-25T22:45:26.080Z,9.20
2022-12-25T22:47:54.300Z,9.20
2022-12-25T22:50:22.531Z,9.00
2022-12-25T22:52:50.875Z,8.90
2022-12-25T22:55:20.126Z,8.90
2022-12-25T22:57:49.957Z,9.00
2022-12-25T23:00:18.035Z,9.10
2022-12-25T23:02:46.220Z,9.20
2022-12-25T23:05:14.641Z,9.20
2022-12-25T23:07:42.846Z,9.10
2022-12-25T23:10:13.069Z,9.10
2022-12-25T23:12:58.713Z,9.30
2022-12-25T23:15:28.872Z,9.30
2022-12-25T23:18:14.878Z,9.40
2022-12-25T23:21:00.432Z,9.40
2022-12-25T23:23:46.820Z,9.40
2022-12-25T23:26:17.466Z,9.10
2022-12-25T23:29:02.993Z,9.10
2022-12-25T23:31:34.695Z,9.20
2022-12-25T23:34:04.783Z,9.10
2022-12-25T23:36:33.104Z,9.20
2022-12-25T23:39:08.968Z,9.20
2022-12-25T23:41:38.702Z,9.30
2022-12-25T23:44:07.539Z,9.40
2022-12-25T23:46:37.406Z,9.30
2022-12-25T23:49:06.027Z,9.20
2022-12-25T23:51:36.472Z,9.40
2022-12-25T23:54:07.370Z,9.40
2022-12-25T23:56:35.505Z,9.40
2022-12-25T23:59:03.535Z,9.50
